createdAt,value
2023-08-07T00:01:05.914Z,15.45
2023-08-07T00:03:36.903Z,15.22
2023-08-07T00:06:06.431Z,15.12
2023-08-07T00:08:35.411Z,15.24
2023-08-07T00:11:11.330Z,15.31
2023-08-07T00:13:40.262Z,15.24
2023-08-07T00:16:11.627Z,15.23
2023-08-07T00:18:40.836Z,15.22
2023-08-07T00:21:10.119Z,15.26
2023-08-07T00:23:39.048Z,15.06
2023-08-07T00:26:08.364Z,15.21
2023-08-07T00:28:37.437Z,15.21
2023-08-07T00:31:06.419Z,15.03
2023-08-07T00:33:35.318Z,15.21
2023-08-07T00:36:04.854Z,15.39
2023-08-07T00:38:34.256Z,15.52
2023-08-07T00:41:03.296Z,15.01
2023-08-07T00:43:32.506Z,14.99
2023-08-07T00:46:02.262Z,14.89
2023-08-07T00:48:32.905Z,15.56
2023-08-07T00:51:02.565Z,15.11
2023-08-07T00:53:31.820Z,15.16
2023-08-07T00:56:01.566Z,15.17
2023-08-07T00:58:31.142Z,15.22
2023-08-07T01:01:00.414Z,15.30
2023-08-07T01:03:29.528Z,15.87
2023-08-07T01:05:59.014Z,16.38
2023-08-07T01:08:28.834Z,16.96
2023-08-07T01:11:29.681Z,17.40
2023-08-07T01:14:20.340Z,17.37
2023-08-07T01:16:54.705Z,17.55
2023-08-07T01:19:29.292Z,17.69
2023-08-07T01:22:27.614Z,17.33
2023-08-07T01:24:56.704Z,17.34
2023-08-07T01:27:36.388Z,17.28
2023-08-07T01:30:16.035Z,17.23
2023-08-07T01:33:10.401Z,17.19
2023-08-07T01:35:47.564Z,17.35
2023-08-07T01:38:17.671Z,17.27
2023-08-07T01:40:49.049Z,17.12
2023-08-07T01:43:20.092Z,17.20
2023-08-07T01:45:49.095Z,17.34
2023-08-07T01:48:18.143Z,17.51
2023-08-07T01:50:47.776Z,17.22
2023-08-07T01:53:16.796Z,17.50
2023-08-07T01:55:45.737Z,17.31
2023-08-07T01:58:14.656Z,17.41
2023-08-07T02:00:43.901Z,17.39
2023-08-07T02:03:13.030Z,16.83
2023-08-07T02:05:42.492Z,16.81
2023-08-07T02:08:11.834Z,17.14
2023-08-07T02:10:41.069Z,16.37
2023-08-07T02:13:11.800Z,15.93
2023-08-07T02:15:41.347Z,16.07
2023-08-07T02:18:10.604Z,16.54
2023-08-07T02:20:40.559Z,16.77
2023-08-07T02:23:09.504Z,16.43
2023-08-07T02:25:38.437Z,16.95
2023-08-07T02:28:07.319Z,16.99
2023-08-07T02:30:36.527Z,17.05
2023-08-07T02:33:05.708Z,16.11
2023-08-07T02:35:35.017Z,16.59
2023-08-07T02:38:04.010Z,16.62
2023-08-07T02:40:33.005Z,16.46
2023-08-07T02:43:02.235Z,16.24
2023-08-07T02:45:31.489Z,16.34
2023-08-07T02:48:01.825Z,16.06
2023-08-07T02:50:33.816Z,16.41
2023-08-07T02:53:03.414Z,16.22
2023-08-07T02:55:32.660Z,16.04
2023-08-07T02:58:01.876Z,16.37
2023-08-07T03:00:30.969Z,15.39
2023-08-07T03:03:00.173Z,15.57
2023-08-07T03:05:29.257Z,15.85
2023-08-07T03:07:58.411Z,16.17
2023-08-07T03:10:28.772Z,16.12
2023-08-07T03:12:57.993Z,16.56
2023-08-07T03:15:27.143Z,16.25
2023-08-07T03:17:56.419Z,16.33
2023-08-07T03:20:25.389Z,16.22
2023-08-07T03:22:55.320Z,16.00
2023-08-07T03:25:24.395Z,16.39
2023-08-07T03:27:53.455Z,16.07
2023-08-07T03:30:22.375Z,16.32
2023-08-07T03:32:51.573Z,16.40
2023-08-07T03:35:20.726Z,16.60
2023-08-07T03:37:50.152Z,16.92
2023-08-07T03:40:19.363Z,16.75
2023-08-07T03:42:48.658Z,16.80
2023-08-07T03:45:17.846Z,16.87
2023-08-07T03:47:47.051Z,17.14
2023-08-07T03:50:16.090Z,17.04
2023-08-07T03:52:45.353Z,17.01
2023-08-07T03:55:14.695Z,16.97
2023-08-07T03:57:43.844Z,17.26
2023-08-07T04:00:13.230Z,17.39
2023-08-07T04:02:42.632Z,17.38
2023-08-07T04:05:12.060Z,17.69
2023-08-07T04:07:41.366Z,17.65
2023-08-07T04:10:10.740Z,17.66
2023-08-07T04:12:39.986Z,17.70
2023-08-07T04:15:10.211Z,17.87
2023-08-07T04:17:39.510Z,17.71
2023-08-07T04:20:09.612Z,17.38
2023-08-07T04:22:38.856Z,17.07
2023-08-07T04:25:08.397Z,17.28
2023-08-07T04:27:37.695Z,17.34
2023-08-07T04:30:07.624Z,17.25
2023-08-07T04:32:36.851Z,17.16
2023-08-07T04:35:06.596Z,17.08
2023-08-07T04:37:35.885Z,16.52
2023-08-07T04:40:06.089Z,17.06
2023-08-07T04:42:35.389Z,17.31
2023-08-07T04:45:05.122Z,17.21
2023-08-07T04:47:34.139Z,17.10
2023-08-07T04:50:03.330Z,16.80
2023-08-07T04:52:33.891Z,17.23
2023-08-07T04:55:03.381Z,17.19
2023-08-07T04:57:32.422Z,17.28
2023-08-07T05:00:01.700Z,17.31
2023-08-07T05:02:30.870Z,17.27
2023-08-07T05:05:00.218Z,17.45
2023-08-07T05:07:29.242Z,17.33
2023-08-07T05:10:00.814Z,17.39
2023-08-07T05:12:30.688Z,17.23
2023-08-07T05:15:00.443Z,17.12
2023-08-07T05:17:29.772Z,17.37
2023-08-07T05:19:59.166Z,17.68
2023-08-07T05:22:28.405Z,17.54
2023-08-07T05:24:57.313Z,17.61
2023-08-07T05:27:26.563Z,17.73
2023-08-07T05:29:55.643Z,17.53
2023-08-07T05:32:24.574Z,17.63
2023-08-07T05:34:54.360Z,17.59
2023-08-07T05:37:23.673Z,17.78
2023-08-07T05:39:52.765Z,17.88
2023-08-07T05:42:21.692Z,17.70
2023-08-07T05:44:50.991Z,17.71
2023-08-07T05:47:20.144Z,17.81
2023-08-07T05:49:48.997Z,17.63
2023-08-07T05:52:19.183Z,17.91
2023-08-07T05:54:49.048Z,17.76
2023-08-07T05:57:19.228Z,17.63
2023-08-07T05:59:48.166Z,17.79
2023-08-07T06:02:17.421Z,17.65
2023-08-07T06:04:46.496Z,17.48
2023-08-07T06:07:15.425Z,17.37
2023-08-07T06:09:45.082Z,17.32
2023-08-07T06:12:14.185Z,17.28
2023-08-07T06:14:44.433Z,17.04
2023-08-07T06:17:13.727Z,17.26
2023-08-07T06:19:42.945Z,17.27
2023-08-07T06:22:11.911Z,17.54
2023-08-07T06:24:41.181Z,17.63
2023-08-07T06:27:10.083Z,17.34
2023-08-07T06:29:39.310Z,17.40
2023-08-07T06:32:08.818Z,17.52
2023-08-07T06:34:39.197Z,17.57
2023-08-07T06:37:08.510Z,17.55
2023-08-07T06:39:37.385Z,17.58
2023-08-07T06:42:06.657Z,17.60
2023-08-07T06:44:35.864Z,17.74
2023-08-07T06:47:04.955Z,18.02
2023-08-07T06:49:34.419Z,18.14
2023-08-07T06:52:03.813Z,18.19
2023-08-07T06:54:32.758Z,18.22
2023-08-07T06:57:02.183Z,18.44
2023-08-07T06:59:31.582Z,18.53
2023-08-07T07:02:00.735Z,18.62
2023-08-07T07:04:30.086Z,18.57
2023-08-07T07:06:59.018Z,18.44
2023-08-07T07:09:29.963Z,18.46
2023-08-07T07:11:59.235Z,18.33
2023-08-07T07:14:28.256Z,18.29
2023-08-07T07:16:57.181Z,18.32
2023-08-07T07:19:26.394Z,18.38
2023-08-07T07:21:55.683Z,18.55
2023-08-07T07:24:24.774Z,18.54
2023-08-07T07:26:54.099Z,18.43
2023-08-07T07:29:23.282Z,18.61
2023-08-07T07:31:52.374Z,18.61
2023-08-07T07:34:21.429Z,18.46
2023-08-07T07:36:50.573Z,18.50
2023-08-07T07:39:19.891Z,18.64
2023-08-07T07:41:49.326Z,18.26
2023-08-07T07:44:18.494Z,18.09
2023-08-07T07:46:47.435Z,18.09
2023-08-07T07:49:16.700Z,18.28
2023-08-07T07:51:47.758Z,18.56
2023-08-07T07:54:16.905Z,18.97
2023-08-07T07:56:46.142Z,19.22
2023-08-07T07:59:15.151Z,19.26
2023-08-07T08:01:44.243Z,19.35
2023-08-07T08:04:13.486Z,19.58
2023-08-07T08:06:42.735Z,19.76
2023-08-07T08:09:12.136Z,19.86
2023-08-07T08:11:41.319Z,19.57
2023-08-07T08:14:10.976Z,19.66
2023-08-07T08:16:40.482Z,19.92
2023-08-07T08:19:11.063Z,20.18
2023-08-07T08:21:41.773Z,20.19
2023-08-07T08:24:10.822Z,20.30
2023-08-07T08:26:40.005Z,20.39
2023-08-07T08:29:09.357Z,20.14
2023-08-07T08:31:38.557Z,20.19
2023-08-07T08:34:07.569Z,20.41
2023-08-07T08:36:37.418Z,20.58
2023-08-07T08:39:06.530Z,20.41
2023-08-07T08:41:35.777Z,20.19
2023-08-07T08:44:06.804Z,20.02
2023-08-07T08:46:37.180Z,20.20
2023-08-07T08:49:09.100Z,20.40
2023-08-07T08:51:38.904Z,20.53
2023-08-07T08:54:09.113Z,20.80
2023-08-07T08:56:39.155Z,21.00
2023-08-07T08:59:08.427Z,20.94
2023-08-07T09:01:38.607Z,20.88
2023-08-07T09:04:08.212Z,20.86
2023-08-07T09:06:37.674Z,21.14
2023-08-07T09:09:08.429Z,21.32
2023-08-07T09:11:38.038Z,21.09
2023-08-07T09:14:07.537Z,21.26
2023-08-07T09:16:37.380Z,21.05
2023-08-07T09:19:07.453Z,20.44
2023-08-07T09:21:37.037Z,20.26
2023-08-07T09:24:06.331Z,20.58
2023-08-07T09:26:35.559Z,20.94
2023-08-07T09:29:05.003Z,21.18
2023-08-07T09:31:34.143Z,21.29
2023-08-07T09:34:06.318Z,21.41
2023-08-07T09:36:35.878Z,21.45
2023-08-07T09:39:05.601Z,21.39
2023-08-07T09:41:36.385Z,21.70
2023-08-07T09:44:09.879Z,21.74
2023-08-07T09:46:46.279Z,21.78
2023-08-07T09:49:17.196Z,21.90
2023-08-07T09:51:49.092Z,22.13
2023-08-07T09:54:18.017Z,22.03
2023-08-07T09:56:49.017Z,22.14
2023-08-07T09:59:18.212Z,21.58
2023-08-07T10:01:47.673Z,21.80
2023-08-07T10:04:17.231Z,21.82
2023-08-07T10:06:47.989Z,21.39
2023-08-07T10:09:17.536Z,20.79
2023-08-07T10:11:47.299Z,20.49
2023-08-07T10:14:16.882Z,20.18
2023-08-07T10:16:46.980Z,20.22
2023-08-07T10:19:16.120Z,20.03
2023-08-07T10:21:46.473Z,20.08
2023-08-07T10:24:17.093Z,20.09
2023-08-07T10:26:47.767Z,19.92
2023-08-07T10:29:20.324Z,20.22
2023-08-07T10:31:51.422Z,20.10
2023-08-07T10:34:20.728Z,20.20
2023-08-07T10:36:50.966Z,19.50
2023-08-07T10:39:20.409Z,19.24
2023-08-07T10:41:56.187Z,20.06
2023-08-07T10:44:26.945Z,19.93
2023-08-07T10:46:58.361Z,20.07
2023-08-07T10:49:34.062Z,19.79
2023-08-07T10:52:26.327Z,19.74
2023-08-07T10:54:55.735Z,19.75
2023-08-07T10:57:32.971Z,19.87
2023-08-07T11:00:07.480Z,20.13
2023-08-07T11:02:40.898Z,20.90
2023-08-07T11:05:10.138Z,21.24
2023-08-07T11:07:41.799Z,21.52
2023-08-07T11:10:15.870Z,21.85
2023-08-07T11:12:45.883Z,21.71
2023-08-07T11:15:15.791Z,21.95
2023-08-07T11:17:44.746Z,21.74
2023-08-07T11:20:13.943Z,21.63
2023-08-07T11:22:44.173Z,21.52
2023-08-07T11:25:14.777Z,21.39
2023-08-07T11:27:44.858Z,21.34
2023-08-07T11:30:14.071Z,21.14
2023-08-07T11:32:43.701Z,20.91
2023-08-07T11:35:12.987Z,20.96
2023-08-07T11:37:48.940Z,20.69
2023-08-07T11:40:18.015Z,20.43
2023-08-07T11:42:47.133Z,20.57
2023-08-07T11:45:18.638Z,21.28
2023-08-07T11:47:48.107Z,22.10
2023-08-07T11:50:17.617Z,22.72
2023-08-07T11:52:47.124Z,22.86
2023-08-07T11:55:16.513Z,22.68
2023-08-07T11:57:48.934Z,22.55
2023-08-07T12:00:18.116Z,22.54
2023-08-07T12:02:47.759Z,22.11
2023-08-07T12:05:16.731Z,22.48
2023-08-07T12:07:46.194Z,22.75
2023-08-07T12:10:15.620Z,22.32
2023-08-07T12:12:46.184Z,22.15
2023-08-07T12:15:21.053Z,21.82
2023-08-07T12:17:50.110Z,21.70
2023-08-07T12:20:19.462Z,21.65
2023-08-07T12:22:49.823Z,21.57
2023-08-07T12:25:19.048Z,21.54
2023-08-07T12:27:49.915Z,21.54
2023-08-07T12:30:18.895Z,21.53
2023-08-07T12:32:48.135Z,21.52
2023-08-07T12:35:19.786Z,21.84
2023-08-07T12:37:48.990Z,22.32
2023-08-07T12:42:54.294Z,22.94
2023-08-07T12:47:56.422Z,22.33
2023-08-07T12:50:30.568Z,22.20
2023-08-07T12:53:00.038Z,21.86
2023-08-07T12:55:29.781Z,21.70
2023-08-07T12:57:59.656Z,21.82
2023-08-07T13:00:28.629Z,21.55
2023-08-07T13:02:58.053Z,22.19
2023-08-07T13:05:29.178Z,22.84
2023-08-07T13:07:59.833Z,22.81
2023-08-07T13:10:32.743Z,22.25
2023-08-07T13:13:02.861Z,21.86
2023-08-07T13:15:32.172Z,21.57
2023-08-07T13:18:01.963Z,21.19
2023-08-07T13:20:35.234Z,20.88
2023-08-07T13:23:07.649Z,20.67
2023-08-07T13:25:37.843Z,21.66
2023-08-07T13:28:08.054Z,22.32
2023-08-07T13:30:37.913Z,22.23
2023-08-07T13:33:07.297Z,22.35
2023-08-07T13:35:36.649Z,22.02
2023-08-07T13:38:09.115Z,21.44
2023-08-07T13:40:38.475Z,21.28
2023-08-07T13:43:10.613Z,20.69
2023-08-07T13:45:39.963Z,21.30
2023-08-07T13:48:10.854Z,22.10
2023-08-07T13:50:40.530Z,22.26
2023-08-07T13:53:15.287Z,22.15
2023-08-07T13:55:45.590Z,22.26
2023-08-07T13:58:17.884Z,21.80
2023-08-07T14:00:47.030Z,21.31
2023-08-07T14:03:16.455Z,21.09
2023-08-07T14:05:45.520Z,21.16
2023-08-07T14:08:14.946Z,21.63
2023-08-07T14:10:44.520Z,21.70
2023-08-07T14:13:13.630Z,21.42
2023-08-07T14:15:43.149Z,20.98
2023-08-07T14:18:14.574Z,20.89
2023-08-07T14:21:00.472Z,20.79
2023-08-07T14:23:33.931Z,20.83
2023-08-07T14:26:03.637Z,20.29
2023-08-07T14:28:32.970Z,20.22
2023-08-07T14:31:02.423Z,20.16
2023-08-07T14:33:31.767Z,20.10
2023-08-07T14:36:01.791Z,19.69
2023-08-07T14:38:31.002Z,20.00
2023-08-07T14:41:03.834Z,20.32
2023-08-07T14:43:33.322Z,20.39
2023-08-07T14:46:02.580Z,20.04
2023-08-07T14:48:31.943Z,20.03
2023-08-07T14:51:00.974Z,19.56
2023-08-07T14:53:30.412Z,20.14
2023-08-07T14:55:59.506Z,20.59
2023-08-07T14:58:28.575Z,20.60
2023-08-07T15:00:57.919Z,20.50
2023-08-07T15:03:27.297Z,20.36
2023-08-07T15:05:58.312Z,20.02
2023-08-07T15:08:27.346Z,19.97
2023-08-07T15:10:56.621Z,20.24
2023-08-07T15:13:26.420Z,20.60
2023-08-07T15:15:56.001Z,20.41
2023-08-07T15:18:25.454Z,20.36
2023-08-07T15:20:54.405Z,20.44
2023-08-07T15:23:23.706Z,20.12
2023-08-07T15:25:52.952Z,19.93
2023-08-07T15:28:22.288Z,19.99
2023-08-07T15:30:52.099Z,19.76
2023-08-07T15:33:23.651Z,20.07
2023-08-07T15:35:57.625Z,20.00
2023-08-07T15:38:29.622Z,19.65
2023-08-07T15:40:58.892Z,19.75
2023-08-07T15:43:28.073Z,19.70
2023-08-07T15:45:57.186Z,19.86
2023-08-07T15:48:26.272Z,19.71
2023-08-07T15:50:55.634Z,19.63
2023-08-07T15:53:24.682Z,19.90
2023-08-07T15:55:53.878Z,19.49
2023-08-07T15:58:24.009Z,19.62
2023-08-07T16:00:53.176Z,19.81
2023-08-07T16:03:23.444Z,19.35
2023-08-07T16:05:52.704Z,19.53
2023-08-07T16:08:21.811Z,19.54
2023-08-07T16:10:51.917Z,19.64
2023-08-07T16:13:21.523Z,19.14
2023-08-07T16:15:50.656Z,19.15
2023-08-07T16:18:20.436Z,19.16
2023-08-07T16:20:49.736Z,19.02
2023-08-07T16:23:19.017Z,19.04
2023-08-07T16:25:47.980Z,18.50
2023-08-07T16:28:17.437Z,18.61
2023-08-07T16:30:46.546Z,18.65
2023-08-07T16:33:17.398Z,18.75
2023-08-07T16:35:46.738Z,18.65
2023-08-07T16:38:16.077Z,18.80
2023-08-07T16:40:45.384Z,18.45
2023-08-07T16:43:14.553Z,18.37
2023-08-07T16:45:43.809Z,18.66
2023-08-07T16:48:13.054Z,19.05
2023-08-07T16:50:45.916Z,18.76
2023-08-07T16:53:17.917Z,18.79
2023-08-07T16:55:47.189Z,18.35
2023-08-07T16:58:16.832Z,18.84
2023-08-07T17:00:46.082Z,19.03
2023-08-07T17:03:16.075Z,18.80
2023-08-07T17:05:45.262Z,18.39
2023-08-07T17:08:14.472Z,18.39
2023-08-07T17:10:43.659Z,18.38
2023-08-07T17:13:12.659Z,18.43
2023-08-07T17:15:42.021Z,18.49
2023-08-07T17:18:11.229Z,18.30
2023-08-07T17:20:40.208Z,18.34
2023-08-07T17:23:09.464Z,18.33
2023-08-07T17:25:38.808Z,18.17
2023-08-07T17:28:07.810Z,18.33
2023-08-07T17:30:37.226Z,18.58
2023-08-07T17:33:06.750Z,18.37
2023-08-07T17:35:36.064Z,18.06
2023-08-07T17:38:05.491Z,17.60
2023-08-07T17:40:34.822Z,17.69
2023-08-07T17:43:03.832Z,18.18
2023-08-07T17:45:33.063Z,17.98
2023-08-07T17:48:02.387Z,17.48
2023-08-07T17:50:31.564Z,17.37
2023-08-07T17:53:00.899Z,17.32
2023-08-07T17:55:31.295Z,17.36
2023-08-07T17:58:01.468Z,17.15
2023-08-07T18:00:30.514Z,17.79
2023-08-07T18:02:59.758Z,17.51
2023-08-07T18:05:30.658Z,16.72
2023-08-07T18:07:59.637Z,16.93
2023-08-07T18:10:29.052Z,17.31
2023-08-07T18:12:58.784Z,17.41
2023-08-07T18:15:27.815Z,16.96
2023-08-07T18:17:56.969Z,16.78
2023-08-07T18:20:26.057Z,16.72
2023-08-07T18:22:55.396Z,16.89
2023-08-07T18:25:24.594Z,16.83
2023-08-07T18:27:53.936Z,16.50
2023-08-07T18:30:23.066Z,16.43
2023-08-07T18:32:54.104Z,15.97
2023-08-07T18:35:24.823Z,15.66
2023-08-07T18:37:53.785Z,15.65
2023-08-07T18:40:23.022Z,15.76
2023-08-07T18:42:52.374Z,16.07
2023-08-07T18:45:21.325Z,16.18
2023-08-07T18:47:52.222Z,16.12
2023-08-07T18:50:21.626Z,15.74
2023-08-07T18:52:50.838Z,15.36
2023-08-07T18:55:20.151Z,15.07
2023-08-07T18:57:50.357Z,15.15
2023-08-07T19:00:19.978Z,15.10
2023-08-07T19:02:49.580Z,15.14
2023-08-07T19:05:18.740Z,14.93
2023-08-07T19:07:48.083Z,14.70
2023-08-07T19:10:17.365Z,14.92
2023-08-07T19:12:46.612Z,14.70
2023-08-07T19:15:17.665Z,14.44
2023-08-07T19:17:46.749Z,14.34
2023-08-07T19:20:15.994Z,14.42
2023-08-07T19:22:45.348Z,14.17
2023-08-07T19:25:14.901Z,14.30
2023-08-07T19:27:44.153Z,14.28
2023-08-07T19:30:13.496Z,14.36
2023-08-07T19:32:44.567Z,14.93
2023-08-07T19:35:13.932Z,14.68
2023-08-07T19:37:43.366Z,14.51
2023-08-07T19:40:12.600Z,14.81
2023-08-07T19:42:41.678Z,14.61
2023-08-07T19:45:11.564Z,14.89
2023-08-07T19:47:41.569Z,15.23
2023-08-07T19:50:11.471Z,15.08
2023-08-07T19:52:40.823Z,14.99
2023-08-07T19:55:10.722Z,15.23
2023-08-07T19:57:40.290Z,15.28
2023-08-07T20:00:11.911Z,15.25
2023-08-07T20:02:42.048Z,14.77
2023-08-07T20:05:11.651Z,15.27
2023-08-07T20:07:41.141Z,15.26
2023-08-07T20:10:12.340Z,15.09
2023-08-07T20:12:43.582Z,15.17
2023-08-07T20:15:14.223Z,15.22
2023-08-07T20:17:46.901Z,15.05
2023-08-07T20:20:16.813Z,15.03
2023-08-07T20:22:46.070Z,15.43
2023-08-07T20:25:15.412Z,15.56
2023-08-07T20:27:45.105Z,15.24
2023-08-07T20:30:14.460Z,15.72
2023-08-07T20:32:43.402Z,15.78
2023-08-07T20:35:12.627Z,15.92
2023-08-07T20:37:41.942Z,15.97
2023-08-07T20:40:13.646Z,15.23
2023-08-07T20:42:43.056Z,14.95
2023-08-07T20:45:12.061Z,14.89
2023-08-07T20:47:41.070Z,14.66
2023-08-07T20:50:10.804Z,14.44
2023-08-07T20:52:39.780Z,14.25
2023-08-07T20:55:09.310Z,13.97
2023-08-07T20:57:38.359Z,13.90
2023-08-07T21:00:10.035Z,13.90
2023-08-07T21:02:39.594Z,14.08
2023-08-07T21:05:09.071Z,14.04
2023-08-07T21:07:38.328Z,13.86
2023-08-07T21:10:08.895Z,13.86
2023-08-07T21:12:37.932Z,13.85
2023-08-07T21:15:07.647Z,13.87
2023-08-07T21:17:37.353Z,13.78
2023-08-07T21:20:07.330Z,13.53
2023-08-07T21:22:36.798Z,13.97
2023-08-07T21:25:06.741Z,14.03
2023-08-07T21:27:37.077Z,14.43
2023-08-07T21:30:07.129Z,14.20
2023-08-07T21:32:36.142Z,13.82
2023-08-07T21:35:05.938Z,13.99
2023-08-07T21:37:34.962Z,14.34
2023-08-07T21:40:05.974Z,14.29
2023-08-07T21:42:35.079Z,14.03
2023-08-07T21:45:04.893Z,14.00
2023-08-07T21:47:34.144Z,14.37
2023-08-07T21:50:03.715Z,14.28
2023-08-07T21:52:32.699Z,14.70
2023-08-07T21:55:02.150Z,14.81
2023-08-07T21:57:32.142Z,14.78
2023-08-07T22:00:01.150Z,15.39
2023-08-07T22:02:30.227Z,15.24
2023-08-07T22:04:59.525Z,14.87
2023-08-07T22:07:28.953Z,15.44
2023-08-07T22:09:58.138Z,15.46
2023-08-07T22:12:27.128Z,15.40
2023-08-07T22:14:57.434Z,15.75
2023-08-07T22:17:26.534Z,15.55
2023-08-07T22:20:04.635Z,15.64
2023-08-07T22:22:35.117Z,15.68
2023-08-07T22:25:05.633Z,15.84
2023-08-07T22:27:34.691Z,15.95
2023-08-07T22:30:06.611Z,15.78
2023-08-07T22:32:37.146Z,15.47
2023-08-07T22:35:06.600Z,15.94
2023-08-07T22:37:35.816Z,15.72
2023-08-07T22:40:05.577Z,15.77
2023-08-07T22:42:34.576Z,15.86
2023-08-07T22:45:03.831Z,15.84
2023-08-07T22:47:32.885Z,15.11
2023-08-07T22:50:02.100Z,15.32
2023-08-07T22:52:31.172Z,15.34
2023-08-07T22:55:00.188Z,15.50
2023-08-07T22:57:29.631Z,15.95
2023-08-07T22:59:58.720Z,15.87
2023-08-07T23:02:27.846Z,15.99
2023-08-07T23:04:57.021Z,15.77
2023-08-07T23:07:26.418Z,15.65
2023-08-07T23:09:55.547Z,15.64
2023-08-07T23:12:24.775Z,15.86
2023-08-07T23:14:54.557Z,15.63
2023-08-07T23:17:23.723Z,15.57
2023-08-07T23:19:52.887Z,15.63
2023-08-07T23:22:22.198Z,15.91
2023-08-07T23:24:51.158Z,15.48
2023-08-07T23:27:20.223Z,15.72
2023-08-07T23:29:49.381Z,15.45
2023-08-07T23:32:18.398Z,15.97
2023-08-07T23:34:47.639Z,16.07
2023-08-07T23:37:16.644Z,15.57
2023-08-07T23:39:45.862Z,15.38
2023-08-07T23:42:15.013Z,15.65
2023-08-07T23:44:44.260Z,15.90
2023-08-07T23:47:13.637Z,15.69
2023-08-07T23:49:43.777Z,15.68
2023-08-07T23:52:13.154Z,15.89
2023-08-07T23:54:42.174Z,15.74
2023-08-07T23:57:11.513Z,15.84
2023-08-07T23:59:40.510Z,15.96
